Time;durP1;ratioP1;P1;durP2;ratioP2;P2;SDS_P1;SDS_P2;PMS_P1;PMS_P2;Temp;Humidity;BMP_temperature;BMP_pressure;BME280_temperature;BME280_humidity;BME280_pressure;Samples;Min_cycle;Max_cycle;Signal;HPM_P1;HPM_P2
2022/04/04 00:01:27;;;;;;;12.90;6.78;;;;;;;;;;5046610;28;20095;-48
2022/04/04 00:03:54;;;;;;;12.35;6.88;;;;;;;;;;5034316;28;20038;-48
2022/04/04 00:06:20;;;;;;;12.65;7.00;;;;;;;;;;5027237;28;20592;-46
2022/04/04 00:08:46;;;;;;;14.95;7.80;;;;;;;;;;5026750;28;20033;-51
2022/04/04 00:11:12;;;;;;;17.48;9.15;;;;;;;;;;5030733;28;20041;-47
2022/04/04 00:13:39;;;;;;;18.35;8.77;;;;;;;;;;5038801;28;20034;-48
2022/04/04 00:16:07;;;;;;;18.13;9.45;;;;;;;;;;5045209;28;20044;-50
2022/04/04 00:18:34;;;;;;;19.13;9.95;;;;;;;;;;5026530;28;20409;-46
2022/04/04 00:21:00;;;;;;;17.00;8.27;;;;;;;;;;5026729;28;20033;-46
2022/04/04 00:23:27;;;;;;;13.85;7.22;;;;;;;;;;5026608;28;20039;-48
2022/04/04 00:25:54;;;;;;;10.65;6.25;;;;;;;;;;5027044;28;20168;-49
2022/04/04 00:28:22;;;;;;;10.60;6.07;;;;;;;;;;5027138;28;20044;-49
2022/04/04 00:30:48;;;;;;;9.55;6.13;;;;;;;;;;5035118;28;20099;-46
2022/04/04 00:33:14;;;;;;;7.70;4.70;;;;;;;;;;5042384;28;20033;-47
2022/04/04 00:35:40;;;;;;;7.30;5.20;;;;;;;;;;5026762;28;20025;-48
2022/04/04 00:38:11;;;;;;;7.43;4.90;;;;;;;;;;5028345;28;20064;-48
2022/04/04 00:40:37;;;;;;;6.82;4.70;;;;;;;;;;5046729;28;20025;-48
2022/04/04 00:43:04;;;;;;;9.25;4.70;;;;;;;;;;5046474;28;20086;-49
2022/04/04 00:45:30;;;;;;;6.70;4.35;;;;;;;;;;5046165;28;20065;-47
2022/04/04 00:47:56;;;;;;;6.15;3.90;;;;;;;;;;5031511;28;20029;-50
2022/04/04 00:50:25;;;;;;;5.13;3.67;;;;;;;;;;5026914;28;20068;-48
2022/04/04 00:52:52;;;;;;;5.93;3.83;;;;;;;;;;5027091;28;20036;-49
2022/04/04 00:55:18;;;;;;;7.35;4.55;;;;;;;;;;5031146;28;20029;-50
2022/04/04 00:57:45;;;;;;;7.82;4.82;;;;;;;;;;5045136;28;20059;-48
2022/04/04 01:00:11;;;;;;;10.15;5.97;;;;;;;;;;5049440;28;20034;-50
2022/04/04 01:02:38;;;;;;;8.85;5.70;;;;;;;;;;5049951;28;20384;-49
2022/04/04 01:05:05;;;;;;;10.73;6.30;;;;;;;;;;5049853;28;20380;-49
2022/04/04 01:07:31;;;;;;;9.77;5.90;;;;;;;;;;5041744;28;20028;-50
2022/04/04 01:09:57;;;;;;;12.27;7.03;;;;;;;;;;5029815;28;20026;-47
2022/04/04 01:12:24;;;;;;;14.90;8.20;;;;;;;;;;5032722;28;20037;-50
2022/04/04 01:14:50;;;;;;;17.17;8.85;;;;;;;;;;5033433;28;20527;-48
2022/04/04 01:17:21;;;;;;;16.25;7.88;;;;;;;;;;5039462;28;20083;-50
2022/04/04 01:19:47;;;;;;;13.45;7.53;;;;;;;;;;5049894;28;20028;-51
2022/04/04 01:22:14;;;;;;;14.20;7.53;;;;;;;;;;5049205;28;20040;-48
2022/04/04 01:24:41;;;;;;;14.68;7.38;;;;;;;;;;5049471;28;20033;-47
2022/04/04 01:27:08;;;;;;;18.02;9.20;;;;;;;;;;5048203;28;20096;-48
2022/04/04 01:29:34;;;;;;;28.10;11.82;;;;;;;;;;5049119;28;20025;-48
2022/04/04 01:32:01;;;;;;;24.70;12.20;;;;;;;;;;5049370;28;20021;-47
2022/04/04 01:34:29;;;;;;;26.05;12.65;;;;;;;;;;5049278;28;20507;-51
2022/04/04 01:36:55;;;;;;;22.95;10.98;;;;;;;;;;5049346;28;20025;-47
2022/04/04 01:39:22;;;;;;;18.15;8.75;;;;;;;;;;5035481;28;20045;-50
2022/04/04 01:41:48;;;;;;;15.23;8.02;;;;;;;;;;5029897;28;20033;-50
2022/04/04 01:44:14;;;;;;;12.18;6.65;;;;;;;;;;5028977;28;20036;-50
2022/04/04 01:46:41;;;;;;;9.18;5.90;;;;;;;;;;5028701;28;20052;-50
2022/04/04 01:49:07;;;;;;;10.30;5.80;;;;;;;;;;5029231;28;20034;-50
2022/04/04 01:51:35;;;;;;;7.43;4.85;;;;;;;;;;5028941;28;20025;-49
2022/04/04 01:54:01;;;;;;;7.18;4.60;;;;;;;;;;5029157;28;20030;-46
2022/04/04 01:56:28;;;;;;;7.53;4.68;;;;;;;;;;5030446;28;20434;-48
2022/04/04 01:58:54;;;;;;;5.72;4.18;;;;;;;;;;5029148;28;20033;-47
2022/04/04 02:01:22;;;;;;;7.68;4.63;;;;;;;;;;5029135;28;20032;-48
2022/04/04 02:03:49;;;;;;;6.82;4.53;;;;;;;;;;5029051;28;20052;-49
2022/04/04 02:06:15;;;;;;;7.70;5.15;;;;;;;;;;5028842;28;20436;-48
2022/04/04 02:08:44;;;;;;;7.47;4.95;;;;;;;;;;5037128;28;20036;-49
2022/04/04 02:11:11;;;;;;;7.40;4.75;;;;;;;;;;5047963;28;20017;-49
2022/04/04 02:13:37;;;;;;;6.97;4.55;;;;;;;;;;5029987;28;20029;-48
2022/04/04 02:16:04;;;;;;;5.82;4.55;;;;;;;;;;5028755;28;20033;-48
2022/04/04 02:18:31;;;;;;;6.43;4.15;;;;;;;;;;5028523;28;20086;-47
2022/04/04 02:20:58;;;;;;;5.78;3.67;;;;;;;;;;5028893;28;20041;-48
2022/04/04 02:23:24;;;;;;;6.65;4.03;;;;;;;;;;5028235;28;20026;-50
2022/04/04 02:25:52;;;;;;;4.80;3.60;;;;;;;;;;5029074;28;20037;-50
2022/04/04 02:28:18;;;;;;;5.13;3.33;;;;;;;;;;5030481;28;20033;-46
2022/04/04 02:30:45;;;;;;;5.18;3.95;;;;;;;;;;5048199;28;20503;-49
2022/04/04 02:33:18;;;;;;;6.10;4.43;;;;;;;;;;5048164;28;20032;-48
2022/04/04 02:35:44;;;;;;;4.95;3.20;;;;;;;;;;5048380;28;20025;-50
2022/04/04 02:38:11;;;;;;;4.75;3.53;;;;;;;;;;5044778;28;20033;-48
2022/04/04 02:40:38;;;;;;;5.65;3.63;;;;;;;;;;5034972;28;20152;-47
2022/04/04 02:43:05;;;;;;;3.83;3.10;;;;;;;;;;5041858;28;20037;-50
2022/04/04 02:45:32;;;;;;;4.75;3.45;;;;;;;;;;5047583;28;20025;-48
2022/04/04 02:47:58;;;;;;;5.22;4.03;;;;;;;;;;5048090;28;20031;-49
2022/04/04 02:50:25;;;;;;;4.63;3.38;;;;;;;;;;5037173;28;20084;-46
2022/04/04 02:52:51;;;;;;;4.60;3.38;;;;;;;;;;5028715;28;20034;-50
2022/04/04 02:58:02;;;;;;;5.05;3.65;;;;;;;;;;5028387;28;20040;-50
2022/04/04 03:00:29;;;;;;;4.05;2.97;;;;;;;;;;5027565;28;20238;-49
2022/04/04 03:02:55;;;;;;;3.45;2.63;;;;;;;;;;5028428;28;20417;-50
2022/04/04 03:05:22;;;;;;;4.15;3.33;;;;;;;;;;5028234;28;20060;-50
2022/04/04 03:07:49;;;;;;;3.42;2.83;;;;;;;;;;5027925;28;20025;-49
2022/04/04 03:10:15;;;;;;;4.18;2.97;;;;;;;;;;5027305;28;20516;-49
2022/04/04 03:12:42;;;;;;;5.30;3.20;;;;;;;;;;5031538;28;20029;-49
2022/04/04 03:15:14;;;;;;;3.15;2.45;;;;;;;;;;5027453;28;20033;-49
2022/04/04 03:17:41;;;;;;;3.40;2.67;;;;;;;;;;5027830;28;20079;-50
2022/04/04 03:20:09;;;;;;;4.28;3.10;;;;;;;;;;5057994;28;20446;-48
2022/04/04 03:22:39;;;;;;;5.25;3.22;;;;;;;;;;5037470;28;20393;-49
2022/04/04 03:25:06;;;;;;;4.78;3.22;;;;;;;;;;5027109;28;20051;-47
2022/04/04 03:27:33;;;;;;;3.35;2.72;;;;;;;;;;5028779;28;20112;-47
2022/04/04 03:29:59;;;;;;;4.45;3.15;;;;;;;;;;5047168;28;20025;-46
2022/04/04 03:32:26;;;;;;;5.32;3.63;;;;;;;;;;5047248;28;20448;-46
2022/04/04 03:34:52;;;;;;;4.50;3.40;;;;;;;;;;5048179;28;20052;-47
2022/04/04 03:37:18;;;;;;;5.55;4.53;;;;;;;;;;5045214;28;20050;-49
2022/04/04 03:39:45;;;;;;;4.43;3.60;;;;;;;;;;5031348;28;20082;-48
2022/04/04 03:42:11;;;;;;;6.47;4.30;;;;;;;;;;5026542;28;20017;-47
2022/04/04 03:44:37;;;;;;;5.60;4.07;;;;;;;;;;5046654;28;20093;-48
2022/04/04 03:47:06;;;;;;;4.70;3.55;;;;;;;;;;5047084;28;20376;-51
2022/04/04 03:49:32;;;;;;;5.00;3.90;;;;;;;;;;5046961;28;20555;-46
2022/04/04 03:51:58;;;;;;;5.82;3.67;;;;;;;;;;5036018;28;20022;-49
2022/04/04 03:54:24;;;;;;;5.22;3.72;;;;;;;;;;5027069;28;20038;-50
2022/04/04 03:56:51;;;;;;;4.32;3.55;;;;;;;;;;5028103;28;20392;-49
2022/04/04 03:59:18;;;;;;;5.55;3.67;;;;;;;;;;5026564;28;20107;-48
2022/04/04 04:01:44;;;;;;;5.70;3.88;;;;;;;;;;5027276;28;20032;-49
2022/04/04 04:04:10;;;;;;;6.53;4.53;;;;;;;;;;5026433;28;20025;-48
2022/04/04 04:06:37;;;;;;;12.52;6.55;;;;;;;;;;5027042;28;20045;-48
2022/04/04 04:09:03;;;;;;;11.00;6.70;;;;;;;;;;5026602;28;20732;-47
2022/04/04 04:11:29;;;;;;;12.25;7.50;;;;;;;;;;5027027;28;20029;-48
2022/04/04 04:13:55;;;;;;;18.77;9.52;;;;;;;;;;5033952;28;20493;-50
2022/04/04 04:16:23;;;;;;;19.13;9.80;;;;;;;;;;5026518;28;20033;-50
2022/04/04 04:18:49;;;;;;;17.45;8.98;;;;;;;;;;5027685;28;20037;-49
2022/04/04 04:21:16;;;;;;;15.88;9.20;;;;;;;;;;5026567;28;20025;-49
2022/04/04 04:23:43;;;;;;;14.30;8.35;;;;;;;;;;5027041;28;20116;-50
2022/04/04 04:26:13;;;;;;;13.05;7.93;;;;;;;;;;5026726;28;20037;-49
2022/04/04 04:28:39;;;;;;;11.77;7.63;;;;;;;;;;5026874;28;20451;-46
2022/04/04 04:31:06;;;;;;;11.55;7.13;;;;;;;;;;5026766;28;20080;-47
2022/04/04 04:33:32;;;;;;;12.13;6.95;;;;;;;;;;5028589;28;20549;-49
2022/04/04 04:36:00;;;;;;;8.88;6.03;;;;;;;;;;5030827;28;20206;-50
2022/04/04 04:38:26;;;;;;;8.07;5.90;;;;;;;;;;5029895;28;20029;-47
2022/04/04 04:40:52;;;;;;;7.10;5.30;;;;;;;;;;5031831;28;20028;-47
2022/04/04 04:43:19;;;;;;;8.20;4.90;;;;;;;;;;5048749;28;20025;-47
2022/04/04 04:45:45;;;;;;;8.20;5.18;;;;;;;;;;5050493;28;20082;-48
2022/04/04 04:48:12;;;;;;;7.63;4.78;;;;;;;;;;5050190;28;20045;-50
2022/04/04 04:50:38;;;;;;;9.75;5.50;;;;;;;;;;5050282;28;20559;-46
2022/04/04 04:53:04;;;;;;;5.78;4.30;;;;;;;;;;5040515;28;20091;-49
2022/04/04 04:55:31;;;;;;;6.65;4.25;;;;;;;;;;5030278;28;20393;-48
2022/04/04 04:57:57;;;;;;;6.38;4.32;;;;;;;;;;5030364;28;20033;-49
2022/04/04 05:00:25;;;;;;;7.32;4.40;;;;;;;;;;5028416;28;20065;-46
2022/04/04 05:05:37;;;;;;;5.95;4.43;;;;;;;;;;5050115;28;20099;-48
2022/04/04 05:08:04;;;;;;;6.47;4.80;;;;;;;;;;5050202;28;20025;-49
2022/04/04 05:10:30;;;;;;;6.30;4.68;;;;;;;;;;5049409;28;20029;-47
2022/04/04 05:12:56;;;;;;;6.28;4.43;;;;;;;;;;5041746;28;20463;-50
2022/04/04 05:15:23;;;;;;;5.90;4.65;;;;;;;;;;5031465;28;20489;-49
2022/04/04 05:17:50;;;;;;;7.90;5.43;;;;;;;;;;5030872;28;20038;-49
2022/04/04 05:20:16;;;;;;;8.20;5.05;;;;;;;;;;5027426;28;20113;-48
2022/04/04 05:22:42;;;;;;;5.78;4.45;;;;;;;;;;5033457;28;20036;-51
2022/04/04 05:25:09;;;;;;;8.32;4.68;;;;;;;;;;5029340;28;20080;-51
2022/04/04 05:27:36;;;;;;;6.63;4.70;;;;;;;;;;5029573;28;20091;-48
2022/04/04 05:30:02;;;;;;;8.77;5.25;;;;;;;;;;5029284;28;20109;-48
2022/04/04 05:32:29;;;;;;;6.28;4.82;;;;;;;;;;5041218;28;20093;-50
2022/04/04 05:34:55;;;;;;;7.03;4.68;;;;;;;;;;5033760;28;20117;-48
2022/04/04 05:37:21;;;;;;;8.80;5.43;;;;;;;;;;5029206;28;20072;-46
2022/04/04 05:39:47;;;;;;;8.63;5.40;;;;;;;;;;5033054;28;20109;-50
2022/04/04 05:42:16;;;;;;;9.00;6.03;;;;;;;;;;5028518;28;20424;-50
2022/04/04 05:44:42;;;;;;;8.85;5.78;;;;;;;;;;5029494;28;20388;-48
2022/04/04 05:47:11;;;;;;;7.95;5.63;;;;;;;;;;5031043;28;20052;-49
2022/04/04 05:49:38;;;;;;;8.18;5.43;;;;;;;;;;5029337;28;20096;-49
2022/04/04 05:52:04;;;;;;;8.10;5.32;;;;;;;;;;5037597;28;20028;-50
2022/04/04 05:54:32;;;;;;;7.20;4.65;;;;;;;;;;5032963;28;20037;-48
2022/04/04 05:56:58;;;;;;;6.22;4.63;;;;;;;;;;5029048;28;20124;-50
2022/04/04 05:59:25;;;;;;;5.70;4.07;;;;;;;;;;5028660;28;20116;-51
2022/04/04 06:01:51;;;;;;;7.25;4.32;;;;;;;;;;5028677;28;20095;-50
2022/04/04 06:04:17;;;;;;;5.45;4.20;;;;;;;;;;5027412;28;20029;-50
2022/04/04 06:06:44;;;;;;;5.20;3.70;;;;;;;;;;5028794;28;20045;-49
2022/04/04 06:09:10;;;;;;;6.65;3.83;;;;;;;;;;5029040;28;20049;-47
2022/04/04 06:11:36;;;;;;;4.45;3.22;;;;;;;;;;5028402;28;20539;-48
2022/04/04 06:14:03;;;;;;;4.38;3.13;;;;;;;;;;5029102;28;20034;-49
2022/04/04 06:16:29;;;;;;;4.75;3.33;;;;;;;;;;5029776;28;20048;-50
2022/04/04 06:18:55;;;;;;;5.25;3.60;;;;;;;;;;5031740;28;20028;-50
2022/04/04 06:21:21;;;;;;;4.82;3.38;;;;;;;;;;5045584;28;20028;-48
2022/04/04 06:23:48;;;;;;;4.88;3.33;;;;;;;;;;5029842;28;20600;-48
2022/04/04 06:26:14;;;;;;;5.95;3.53;;;;;;;;;;5027339;28;20095;-50
2022/04/04 06:28:40;;;;;;;5.35;3.63;;;;;;;;;;5028113;28;20034;-48
2022/04/04 06:31:06;;;;;;;6.32;4.03;;;;;;;;;;5028112;28;20116;-48
2022/04/04 06:33:33;;;;;;;8.05;4.10;;;;;;;;;;5035730;28;20112;-50
2022/04/04 06:35:59;;;;;;;7.63;4.57;;;;;;;;;;5047288;28;20037;-50
2022/04/04 06:38:25;;;;;;;6.28;4.25;;;;;;;;;;5027326;28;20548;-50
2022/04/04 06:40:52;;;;;;;7.43;4.75;;;;;;;;;;5026361;28;20049;-47
2022/04/04 06:43:18;;;;;;;8.20;5.20;;;;;;;;;;5028260;28;20119;-49
2022/04/04 06:45:45;;;;;;;6.55;4.28;;;;;;;;;;5027411;28;20121;-49
2022/04/04 06:48:11;;;;;;;5.25;3.72;;;;;;;;;;5026947;28;20025;-46
2022/04/04 06:50:38;;;;;;;6.28;4.18;;;;;;;;;;5031793;28;20025;-47
2022/04/04 06:53:04;;;;;;;6.65;4.13;;;;;;;;;;5034783;28;20030;-49
2022/04/04 06:55:31;;;;;;;5.40;3.92;;;;;;;;;;5040864;28;20416;-50
2022/04/04 06:57:57;;;;;;;4.95;3.70;;;;;;;;;;5037662;28;20061;-48
2022/04/04 07:00:24;;;;;;;5.03;3.55;;;;;;;;;;5026565;28;20091;-47
2022/04/04 07:02:50;;;;;;;6.10;3.60;;;;;;;;;;5041737;28;20048;-47
2022/04/04 07:05:17;;;;;;;6.70;4.10;;;;;;;;;;5040919;28;20028;-49
2022/04/04 07:07:44;;;;;;;5.22;3.78;;;;;;;;;;5026595;28;20033;-50
2022/04/04 07:10:14;;;;;;;6.35;3.88;;;;;;;;;;5035503;28;20396;-49
2022/04/04 07:12:43;;;;;;;5.20;3.72;;;;;;;;;;5029756;28;20075;-48
2022/04/04 07:15:13;;;;;;;6.18;3.88;;;;;;;;;;5027194;28;20025;-48
2022/04/04 07:17:40;;;;;;;4.78;3.40;;;;;;;;;;5035168;28;20051;-48
2022/04/04 07:20:07;;;;;;;6.38;4.00;;;;;;;;;;5026099;28;20025;-47
2022/04/04 07:22:40;;;;;;;4.75;3.30;;;;;;;;;;5026517;28;20041;-48
2022/04/04 07:25:10;;;;;;;5.70;3.53;;;;;;;;;;5026905;28;20108;-50
2022/04/04 07:27:39;;;;;;;5.72;3.65;;;;;;;;;;5033772;28;20030;-47
2022/04/04 07:30:06;;;;;;;6.45;4.40;;;;;;;;;;5026408;28;20496;-48
2022/04/04 07:32:35;;;;;;;6.38;4.13;;;;;;;;;;5026284;28;20013;-50
2022/04/04 07:35:01;;;;;;;5.05;3.63;;;;;;;;;;5026326;28;20424;-49
2022/04/04 07:37:27;;;;;;;5.95;4.20;;;;;;;;;;5026235;28;20025;-48
2022/04/04 07:39:53;;;;;;;6.97;4.22;;;;;;;;;;5033821;28;20046;-50
2022/04/04 07:42:20;;;;;;;7.68;4.68;;;;;;;;;;5025957;28;20745;-49
2022/04/04 07:44:46;;;;;;;6.90;4.10;;;;;;;;;;5026287;28;20025;-49
2022/04/04 07:47:12;;;;;;;5.25;3.88;;;;;;;;;;5026106;28;20050;-49
2022/04/04 07:49:38;;;;;;;6.00;4.20;;;;;;;;;;5033382;28;20029;-49
2022/04/04 07:52:05;;;;;;;4.80;3.83;;;;;;;;;;5044827;28;20693;-51
2022/04/04 07:54:31;;;;;;;5.30;3.95;;;;;;;;;;5052554;28;20038;-51
2022/04/04 07:56:57;;;;;;;5.57;4.20;;;;;;;;;;5065940;28;20024;-50
2022/04/04 07:59:24;;;;;;;5.97;4.13;;;;;;;;;;5065988;28;20094;-50
2022/04/04 08:01:50;;;;;;;6.82;4.20;;;;;;;;;;5033708;28;20528;-46
2022/04/04 08:04:17;;;;;;;4.95;3.70;;;;;;;;;;5025759;28;20048;-49
2022/04/04 08:06:44;;;;;;;5.63;4.00;;;;;;;;;;5032264;28;20105;-48
2022/04/04 08:09:10;;;;;;;5.05;3.88;;;;;;;;;;5039304;28;20039;-50
2022/04/04 08:11:37;;;;;;;6.07;4.35;;;;;;;;;;5029994;28;20404;-49
2022/04/04 08:14:04;;;;;;;8.05;4.53;;;;;;;;;;5028476;28;20409;-49
2022/04/04 08:16:30;;;;;;;5.60;3.60;;;;;;;;;;5027824;28;20041;-46
2022/04/04 08:18:56;;;;;;;5.97;4.45;;;;;;;;;;5030574;28;20037;-45
2022/04/04 08:21:23;;;;;;;5.95;4.40;;;;;;;;;;5033958;28;20029;-50
2022/04/04 08:23:49;;;;;;;5.40;4.28;;;;;;;;;;5041799;28;20195;-50
2022/04/04 08:26:15;;;;;;;6.28;4.28;;;;;;;;;;5028090;28;20516;-50
2022/04/04 08:28:42;;;;;;;9.00;5.20;;;;;;;;;;5028210;28;20036;-49
2022/04/04 08:31:08;;;;;;;7.35;5.07;;;;;;;;;;5039151;28;20074;-50
2022/04/04 08:33:34;;;;;;;6.72;4.05;;;;;;;;;;5032552;28;20032;-49
2022/04/04 08:36:03;;;;;;;8.93;6.30;;;;;;;;;;5039658;28;20068;-49
2022/04/04 08:38:30;;;;;;;6.95;4.85;;;;;;;;;;5035576;28;20110;-51
2022/04/04 08:40:59;;;;;;;7.65;5.78;;;;;;;;;;5031516;28;20099;-47
2022/04/04 08:43:28;;;;;;;7.07;4.97;;;;;;;;;;5028605;28;20037;-50
2022/04/04 08:45:55;;;;;;;6.15;4.53;;;;;;;;;;5029106;28;20032;-49
2022/04/04 08:48:21;;;;;;;6.68;4.60;;;;;;;;;;5031029;28;20404;-50
2022/04/04 08:50:47;;;;;;;5.68;4.13;;;;;;;;;;5038101;28;20025;-49
2022/04/04 08:53:14;;;;;;;7.95;4.55;;;;;;;;;;5031934;28;20030;-49
2022/04/04 08:55:40;;;;;;;5.47;4.10;;;;;;;;;;5031529;28;20032;-49
2022/04/04 08:58:07;;;;;;;6.10;4.78;;;;;;;;;;5028802;28;20040;-48
2022/04/04 09:00:36;;;;;;;5.30;4.32;;;;;;;;;;5027334;28;20488;-47
2022/04/04 09:03:04;;;;;;;5.68;4.00;;;;;;;;;;5027876;28;20403;-48
2022/04/04 09:05:34;;;;;;;6.20;5.00;;;;;;;;;;5027518;28;20037;-48
2022/04/04 09:08:00;;;;;;;6.53;4.88;;;;;;;;;;5027852;28;20029;-50
2022/04/04 09:10:34;;;;;;;5.00;4.22;;;;;;;;;;5043850;28;20040;-47
2022/04/04 09:13:20;;;;;;;5.70;4.25;;;;;;;;;;5047940;28;20056;-50
2022/04/04 09:15:50;;;;;;;6.47;4.43;;;;;;;;;;5040833;28;20025;-47
2022/04/04 09:18:17;;;;;;;5.63;4.22;;;;;;;;;;5025797;28;20107;-48
2022/04/04 09:20:49;;;;;;;4.70;3.72;;;;;;;;;;5027694;28;20029;-47
2022/04/04 09:23:16;;;;;;;5.28;3.90;;;;;;;;;;5026658;28;20682;-49
2022/04/04 09:25:42;;;;;;;4.07;3.40;;;;;;;;;;5026707;28;20067;-50
2022/04/04 09:28:15;;;;;;;5.32;4.15;;;;;;;;;;5027472;28;20034;-49
2022/04/04 09:30:42;;;;;;;4.93;4.10;;;;;;;;;;5028420;28;20025;-47
2022/04/04 09:33:12;;;;;;;4.22;3.22;;;;;;;;;;5036524;28;20330;-47
2022/04/04 09:35:46;;;;;;;5.93;4.38;;;;;;;;;;5065229;28;20029;-48
2022/04/04 09:38:16;;;;;;;6.63;5.22;;;;;;;;;;5060888;28;20361;-49
2022/04/04 09:40:43;;;;;;;6.40;4.55;;;;;;;;;;5046339;28;20025;-46
2022/04/04 09:43:09;;;;;;;7.47;5.03;;;;;;;;;;5031715;28;20037;-49
2022/04/04 09:45:35;;;;;;;6.57;4.55;;;;;;;;;;5047681;28;20060;-49
2022/04/04 09:48:02;;;;;;;6.50;4.90;;;;;;;;;;5047076;28;20019;-47
2022/04/04 09:50:33;;;;;;;5.95;4.20;;;;;;;;;;5044553;28;20032;-46
2022/04/04 09:52:59;;;;;;;4.40;3.92;;;;;;;;;;5026931;28;20052;-45
2022/04/04 09:55:29;;;;;;;5.07;3.92;;;;;;;;;;5032415;28;20694;-48
2022/04/04 09:58:04;;;;;;;5.07;3.08;;;;;;;;;;5045297;28;20025;-48
2022/04/04 10:00:30;;;;;;;4.25;3.22;;;;;;;;;;5026113;28;20353;-46
2022/04/04 10:02:58;;;;;;;3.15;2.72;;;;;;;;;;5027051;28;20032;-47
2022/04/04 10:05:26;;;;;;;3.25;2.63;;;;;;;;;;5025873;28;20044;-51
2022/04/04 10:07:58;;;;;;;4.40;3.20;;;;;;;;;;5042414;28;20385;-48
2022/04/04 10:10:33;;;;;;;3.53;2.45;;;;;;;;;;5046509;28;20044;-49
2022/04/04 10:13:00;;;;;;;4.28;3.10;;;;;;;;;;5046691;28;20025;-50
2022/04/04 10:15:27;;;;;;;3.10;2.38;;;;;;;;;;5046776;28;20551;-46
2022/04/04 10:17:55;;;;;;;3.75;2.78;;;;;;;;;;5034673;28;20406;-50
2022/04/04 10:20:21;;;;;;;4.28;2.75;;;;;;;;;;5028848;28;20087;-48
2022/04/04 10:22:51;;;;;;;3.75;2.70;;;;;;;;;;5028138;28;20045;-49
2022/04/04 10:25:19;;;;;;;3.15;2.70;;;;;;;;;;5030631;28;20116;-46
2022/04/04 10:27:46;;;;;;;5.32;3.45;;;;;;;;;;5044753;28;20108;-50
2022/04/04 10:30:13;;;;;;;5.25;3.60;;;;;;;;;;5030231;28;20021;-51
2022/04/04 10:32:53;;;;;;;3.75;3.25;;;;;;;;;;5040403;28;20483;-49
2022/04/04 10:35:21;;;;;;;4.35;2.88;;;;;;;;;;5036202;28;20455;-49
2022/04/04 10:37:48;;;;;;;4.00;3.13;;;;;;;;;;5028120;28;20380;-47
2022/04/04 10:40:24;;;;;;;3.78;3.15;;;;;;;;;;5027065;28;20037;-47
2022/04/04 10:43:10;;;;;;;3.35;2.95;;;;;;;;;;5031813;28;20032;-47
2022/04/04 10:45:52;;;;;;;3.45;3.08;;;;;;;;;;5026926;28;20029;-48
2022/04/04 10:48:19;;;;;;;4.50;3.28;;;;;;;;;;5027113;28;20101;-49
2022/04/04 10:50:46;;;;;;;6.50;4.50;;;;;;;;;;5027247;28;20030;-51
2022/04/04 10:53:12;;;;;;;4.75;3.55;;;;;;;;;;5027155;28;20029;-48
2022/04/04 10:55:38;;;;;;;4.15;3.20;;;;;;;;;;5027356;28;20057;-50
2022/04/04 10:58:11;;;;;;;3.80;3.08;;;;;;;;;;5027001;28;20100;-47
2022/04/04 11:00:56;;;;;;;4.32;3.55;;;;;;;;;;5026888;28;20037;-48
2022/04/04 11:03:29;;;;;;;5.82;3.90;;;;;;;;;;5028604;28;20032;-51
2022/04/04 11:09:04;;;;;;;5.25;3.85;;;;;;;;;;5047131;28;20024;-50
2022/04/04 11:11:50;;;;;;;3.95;2.92;;;;;;;;;;5034559;28;20062;-51
2022/04/04 11:14:39;;;;;;;3.40;2.92;;;;;;;;;;5045771;28;20417;-47
2022/04/04 11:17:11;;;;;;;2.80;2.35;;;;;;;;;;5015483;28;20076;-47
2022/04/04 11:19:53;;;;;;;2.67;2.42;;;;;;;;;;5051092;28;20046;-47
2022/04/04 11:22:21;;;;;;;2.75;2.30;;;;;;;;;;5040919;28;20040;-48
2022/04/04 11:24:51;;;;;;;2.92;2.10;;;;;;;;;;5026355;28;20058;-47
2022/04/04 11:27:18;;;;;;;2.20;1.90;;;;;;;;;;5027402;28;20037;-46
2022/04/04 11:29:44;;;;;;;2.83;1.92;;;;;;;;;;5038153;28;20033;-45
2022/04/04 11:32:19;;;;;;;2.38;2.08;;;;;;;;;;5027834;28;20034;-45
2022/04/04 11:34:45;;;;;;;3.40;2.50;;;;;;;;;;5026203;28;20033;-45
2022/04/04 11:37:21;;;;;;;2.42;2.00;;;;;;;;;;5027031;28;20029;-45
2022/04/04 11:39:48;;;;;;;3.05;2.55;;;;;;;;;;5026242;28;20460;-48
2022/04/04 11:42:15;;;;;;;2.83;2.05;;;;;;;;;;5031919;28;20021;-48
2022/04/04 11:44:47;;;;;;;3.00;2.60;;;;;;;;;;5034236;28;20030;-49
2022/04/04 11:47:14;;;;;;;2.95;2.30;;;;;;;;;;5031009;28;20033;-46
2022/04/04 11:49:44;;;;;;;2.78;2.45;;;;;;;;;;5031095;28;20084;-48
2022/04/04 11:52:15;;;;;;;2.67;2.33;;;;;;;;;;5034188;28;20041;-46
2022/04/04 11:54:50;;;;;;;2.40;2.20;;;;;;;;;;5040720;28;20128;-45
2022/04/04 11:57:17;;;;;;;2.80;2.35;;;;;;;;;;5025717;28;20087;-48
2022/04/04 11:59:44;;;;;;;2.55;2.30;;;;;;;;;;5027806;28;20029;-48
2022/04/04 12:02:11;;;;;;;2.53;2.20;;;;;;;;;;5026965;28;20035;-45
2022/04/04 12:04:39;;;;;;;2.70;2.30;;;;;;;;;;5039976;28;20083;-46
2022/04/04 12:07:06;;;;;;;2.85;2.38;;;;;;;;;;5040814;28;20122;-49
2022/04/04 12:09:33;;;;;;;3.38;2.83;;;;;;;;;;5043902;28;20036;-46
2022/04/04 12:12:04;;;;;;;3.78;3.00;;;;;;;;;;5031898;28;20451;-45
2022/04/04 12:14:32;;;;;;;3.15;2.67;;;;;;;;;;5026502;28;20025;-48
2022/04/04 12:16:58;;;;;;;3.42;2.80;;;;;;;;;;5039408;28;20048;-45
2022/04/04 12:19:25;;;;;;;3.78;3.20;;;;;;;;;;5032839;28;20024;-48
2022/04/04 12:21:52;;;;;;;4.72;3.20;;;;;;;;;;5045838;28;20033;-46
2022/04/04 12:27:09;;;;;;;3.42;2.60;;;;;;;;;;5030960;28;20094;-51
2022/04/04 12:29:44;;;;;;;3.08;2.05;;;;;;;;;;5046388;28;20760;-46
2022/04/04 12:32:15;;;;;;;3.22;2.25;;;;;;;;;;5027820;28;20033;-47
2022/04/04 12:34:53;;;;;;;3.58;2.63;;;;;;;;;;5042213;28;20032;-48
2022/04/04 12:37:20;;;;;;;3.45;2.70;;;;;;;;;;5044249;28;20033;-46
2022/04/04 12:39:49;;;;;;;4.65;2.90;;;;;;;;;;5036785;28;20105;-50
2022/04/04 12:42:16;;;;;;;3.90;3.10;;;;;;;;;;5033185;28;20036;-48
2022/04/04 12:44:42;;;;;;;3.85;3.08;;;;;;;;;;5037923;28;20029;-49
2022/04/04 12:47:09;;;;;;;4.13;3.13;;;;;;;;;;5034891;28;20392;-46
2022/04/04 12:49:37;;;;;;;5.50;3.72;;;;;;;;;;5030319;28;20381;-48
2022/04/04 12:52:09;;;;;;;5.68;4.07;;;;;;;;;;5038278;28;20481;-47
2022/04/04 12:54:37;;;;;;;4.95;3.60;;;;;;;;;;5027851;28;20385;-49
2022/04/04 12:57:04;;;;;;;3.92;3.10;;;;;;;;;;5034495;28;20033;-46
2022/04/04 12:59:31;;;;;;;5.30;3.42;;;;;;;;;;5041309;28;20055;-45
2022/04/04 13:02:15;;;;;;;2.88;2.47;;;;;;;;;;5029902;28;20032;-47
2022/04/04 13:04:42;;;;;;;4.35;3.10;;;;;;;;;;5032721;28;20545;-49
2022/04/04 13:07:15;;;;;;;3.80;3.30;;;;;;;;;;5030396;28;20033;-49
2022/04/04 13:09:48;;;;;;;4.10;3.20;;;;;;;;;;5036027;28;20037;-46
2022/04/04 13:12:24;;;;;;;3.50;2.92;;;;;;;;;;5045378;28;20361;-48
2022/04/04 13:14:50;;;;;;;3.20;2.55;;;;;;;;;;5036739;28;20397;-45
2022/04/04 13:17:16;;;;;;;3.17;2.63;;;;;;;;;;5047005;28;20048;-45
2022/04/04 13:19:42;;;;;;;3.15;2.70;;;;;;;;;;5037567;28;20030;-45
2022/04/04 13:22:08;;;;;;;3.55;2.42;;;;;;;;;;5037155;28;20029;-49
2022/04/04 13:24:34;;;;;;;2.72;2.20;;;;;;;;;;5048355;28;20453;-47
2022/04/04 13:27:01;;;;;;;3.58;2.67;;;;;;;;;;5039484;28;20378;-45
2022/04/04 13:29:27;;;;;;;3.60;2.60;;;;;;;;;;5036261;28;20040;-50
2022/04/04 13:31:53;;;;;;;2.75;2.47;;;;;;;;;;5046798;28;20112;-48
2022/04/04 13:34:19;;;;;;;2.95;2.20;;;;;;;;;;5030911;28;20029;-49
2022/04/04 13:36:47;;;;;;;2.38;2.00;;;;;;;;;;5048473;28;20036;-49
2022/04/04 13:39:13;;;;;;;3.00;2.20;;;;;;;;;;5047345;28;20094;-50
2022/04/04 13:41:42;;;;;;;2.67;2.00;;;;;;;;;;5036216;28;20496;-47
2022/04/04 13:44:08;;;;;;;3.47;3.00;;;;;;;;;;5029028;28;20021;-46
2022/04/04 13:46:35;;;;;;;3.75;3.10;;;;;;;;;;5029196;28;20029;-47
2022/04/04 13:49:02;;;;;;;3.05;2.60;;;;;;;;;;5037208;28;20021;-46
2022/04/04 13:51:29;;;;;;;3.13;2.45;;;;;;;;;;5037251;28;20033;-47
2022/04/04 13:53:57;;;;;;;2.85;2.40;;;;;;;;;;5047973;28;20567;-47
2022/04/04 15:08:24;;;;;;;3.38;2.53;;;;;;;;;;5049252;28;20098;-47
2022/04/04 15:10:50;;;;;;;2.60;2.40;;;;;;;;;;5067868;28;20063;-51
2022/04/04 15:13:16;;;;;;;2.65;2.45;;;;;;;;;;5066331;28;20492;-49
2022/04/04 15:15:42;;;;;;;3.00;2.35;;;;;;;;;;5039223;28;20405;-51
2022/04/04 15:18:09;;;;;;;3.42;2.22;;;;;;;;;;5036247;28;20039;-47
2022/04/04 15:20:35;;;;;;;3.50;2.70;;;;;;;;;;5048484;28;20033;-51
2022/04/04 15:23:01;;;;;;;5.80;4.95;;;;;;;;;;5045828;28;20032;-50
2022/04/04 15:25:27;;;;;;;4.20;3.80;;;;;;;;;;5039068;28;20527;-49
2022/04/04 15:27:53;;;;;;;4.95;3.90;;;;;;;;;;5030651;28;20052;-51
2022/04/04 15:30:20;;;;;;;4.72;3.90;;;;;;;;;;5037077;28;20026;-51
2022/04/04 15:32:46;;;;;;;6.22;3.78;;;;;;;;;;5031241;28;20024;-51
2022/04/04 15:35:13;;;;;;;4.35;3.33;;;;;;;;;;5035636;28;20029;-51
2022/04/04 15:37:41;;;;;;;4.97;3.75;;;;;;;;;;5030778;28;20033;-52
2022/04/04 15:40:08;;;;;;;6.07;4.63;;;;;;;;;;5028920;28;20040;-52
2022/04/04 15:42:34;;;;;;;4.55;3.58;;;;;;;;;;5029338;28;20029;-51
2022/04/04 15:45:02;;;;;;;5.80;3.20;;;;;;;;;;5036648;28;20023;-50
2022/04/04 15:47:29;;;;;;;8.45;5.47;;;;;;;;;;5047267;28;20025;-51
2022/04/04 15:49:55;;;;;;;10.27;6.22;;;;;;;;;;5046903;28;20025;-50
2022/04/04 15:52:23;;;;;;;7.78;4.68;;;;;;;;;;5046634;28;20428;-48
2022/04/04 15:54:50;;;;;;;11.27;4.93;;;;;;;;;;5029522;28;20504;-50
2022/04/04 15:57:18;;;;;;;12.05;7.43;;;;;;;;;;5047349;28;20063;-50
2022/04/04 15:59:44;;;;;;;14.50;8.13;;;;;;;;;;5046658;28;20435;-51
2022/04/04 16:02:10;;;;;;;8.63;5.32;;;;;;;;;;5043896;28;20044;-52
2022/04/04 16:04:36;;;;;;;6.55;4.47;;;;;;;;;;5035193;28;20044;-50
2022/04/04 16:07:05;;;;;;;5.47;3.80;;;;;;;;;;5031147;28;20028;-49